Aviation Digital Data Service (ADDS)

Output produced by METARs form (1825 UTC 16 August 2018)
found at http://www.aviationweather.gov/adds/metars/
 
DXXX 161800Z 21012KT 9999 SCT010 25/23 Q1014 NOSIG
TAF DXXX 161700Z 1618/1724 20010KT 9999 SCT010 
     BECMG 1700/1702 26005KT 
     PROB30 
     TEMPO 1703/1706 4500 DZRA BKN010 
     BECMG 1708/1710 20010KT
       
DXNG 161800Z 28004KT 240V330 9999 SCT007 FEW016CB 28/21 Q1015 NOSIG
TAF DXNG 161700Z 1618/1718 VRB05KT 9999 SCT006 
     BECMG 1618/1620 BKN008 FEW016CB 
     PROB40 
     TEMPO 1621/1624 4000 TSRA 
     BECMG 1702/1704 SCT006